Terminal Aerodrome Forecast
Issued by NWS

Home | Current Version | Previous Version | Text Only | Print | Product List | Glossary On
Versions: 1 2 3 4 5 6 7 8 9 10 11 12 13 14 15 16
000
FTUS45 KRIW 231829 AAA
TAFPNA
TAF AMD
KPNA 231829Z 2318/2418 22012G20KT P6SM VCTS SCT030CB OVC060
      TEMPO 2318/2320 P6SM -TSRA BKN030CB
     FM240100 28005KT P6SM VCSH FEW030 OVC080
     FM240900 VRB03KT P6SM FEW050 OVC080
     FM241100 VRB05KT P6SM VCFG SCT006 OVC050
      AMD LTD TO CLD VIS AND WIND=

USA.gov is the U.S. government's official web portal to all federal, state and local government web resources and services.